CFG8DC EDDF-LEPA
Flight info
| Callsign | CFG8DC |
|---|---|
| Flight time | 1h 54m |
| Altitude | 33000 |
| Route | ANEKI2L/18 ANEKI Y163 HERBI Y164 MOPAN DCT LUTIX/N0457F350 DCT BENOT DCT NEMOS DCT GEVEA DCT INCUS DCT BALSI DCT RETNO DCT TUPOX DCT MTG DCT DIVKO DCT VATIR DCT PIVUS N852 VERSO L129 LUNIK |
| Aircraft | A321/M-SDE2E3FGHIJ1RWXYZ/LB1 |
Departure
| Time | 2026-05-05 17:16 |
|---|---|
| Airport | Frankfurt Main Airport (EDDF) |
Arrival
| Time | 2026-05-05 19:10 |
|---|---|
| Airport | Palma de Mallorca Airport (LEPA) |
| Time | Latitude | Longitude | Altitude | Speed | Heading |
|---|---|---|---|---|---|
| 2026-05-05 16:41 | 50.04065 | 8.55617 | 351 ft | 0 kts | 160° |
| 2026-05-05 17:07 | 50.04047 | 8.55627 | 356 ft | 6 kts | 160° |
| 2026-05-05 17:07 | 50.03986 | 8.55646 | 349 ft | 10 kts | 200° |
| 2026-05-05 17:07 | 50.03955 | 8.55560 | 350 ft | 11 kts | 249° |
| 2026-05-05 17:07 | 50.03988 | 8.55456 | 353 ft | 14 kts | 338° |
| 2026-05-05 17:08 | 50.04078 | 8.55396 | 359 ft | 12 kts | 320° |
| 2026-05-05 17:08 | 50.04084 | 8.55287 | 355 ft | 12 kts | 250° |
| 2026-05-05 17:08 | 50.04046 | 8.55139 | 359 ft | 18 kts | 249° |
| 2026-05-05 17:08 | 50.03997 | 8.54929 | 358 ft | 23 kts | 250° |
| 2026-05-05 17:09 | 50.03946 | 8.54714 | 354 ft | 19 kts | 250° |
| 2026-05-05 17:09 | 50.03905 | 8.54540 | 355 ft | 15 kts | 250° |
| 2026-05-05 17:09 | 50.03867 | 8.54386 | 352 ft | 17 kts | 244° |
| 2026-05-05 17:09 | 50.03794 | 8.54204 | 347 ft | 22 kts | 250° |
| 2026-05-05 17:10 | 50.03738 | 8.53968 | 344 ft | 22 kts | 249° |
| 2026-05-05 17:10 | 50.03691 | 8.53769 | 346 ft | 17 kts | 249° |
| 2026-05-05 17:10 | 50.03653 | 8.53613 | 347 ft | 15 kts | 248° |
| 2026-05-05 17:10 | 50.03609 | 8.53444 | 338 ft | 19 kts | 248° |
| 2026-05-05 17:11 | 50.03566 | 8.53261 | 337 ft | 16 kts | 250° |
| 2026-05-05 17:11 | 50.03533 | 8.53123 | 335 ft | 11 kts | 249° |
| 2026-05-05 17:11 | 50.03508 | 8.53018 | 335 ft | 11 kts | 249° |
| 2026-05-05 17:11 | 50.03481 | 8.52906 | 336 ft | 9 kts | 248° |
| 2026-05-05 17:12 | 50.03461 | 8.52835 | 334 ft | 6 kts | 245° |
| 2026-05-05 17:12 | 50.03446 | 8.52780 | 332 ft | 6 kts | 249° |
| 2026-05-05 17:12 | 50.03437 | 8.52746 | 333 ft | 1 kts | 249° |
| 2026-05-05 17:12 | 50.03437 | 8.52744 | 333 ft | 0 kts | 249° |
| 2026-05-05 17:14 | 50.03430 | 8.52717 | 332 ft | 6 kts | 249° |
| 2026-05-05 17:14 | 50.03415 | 8.52653 | 333 ft | 4 kts | 250° |
| 2026-05-05 17:15 | 50.03405 | 8.52616 | 335 ft | 2 kts | 248° |
| 2026-05-05 17:15 | 50.03386 | 8.52596 | 334 ft | 3 kts | 192° |
| 2026-05-05 17:15 | 50.03331 | 8.52596 | 335 ft | 27 kts | 180° |
| 2026-05-05 17:15 | 50.02907 | 8.52598 | 331 ft | 91 kts | 179° |
| 2026-05-05 17:16 | 50.02109 | 8.52610 | 334 ft | 139 kts | 179° |
| 2026-05-05 17:16 | 50.01004 | 8.52626 | 352 ft | 175 kts | 180° |
| 2026-05-05 17:16 | 49.99785 | 8.52659 | 939 ft | 170 kts | 182° |
| 2026-05-05 17:16 | 49.98610 | 8.52722 | 1577 ft | 170 kts | 180° |
| 2026-05-05 17:17 | 49.97378 | 8.52810 | 1865 ft | 187 kts | 180° |
| 2026-05-05 17:17 | 49.96000 | 8.52909 | 2038 ft | 210 kts | 179° |
| 2026-05-05 17:17 | 49.94481 | 8.53019 | 2363 ft | 224 kts | 179° |
| 2026-05-05 17:17 | 49.92914 | 8.53133 | 2669 ft | 226 kts | 179° |
| 2026-05-05 17:18 | 49.91341 | 8.53246 | 2942 ft | 227 kts | 179° |
| 2026-05-05 17:18 | 49.89754 | 8.53358 | 3513 ft | 228 kts | 179° |
| 2026-05-05 17:18 | 49.88172 | 8.53469 | 4160 ft | 227 kts | 180° |
| 2026-05-05 17:18 | 49.86587 | 8.53578 | 4758 ft | 229 kts | 179° |
| 2026-05-05 17:19 | 49.84985 | 8.53687 | 5344 ft | 231 kts | 179° |
| 2026-05-05 17:19 | 49.83921 | 8.53761 | 5738 ft | 232 kts | 179° |
| 2026-05-05 17:19 | 49.82309 | 8.53872 | 6329 ft | 232 kts | 179° |
| 2026-05-05 17:19 | 49.80139 | 8.54018 | 7072 ft | 234 kts | 179° |
| 2026-05-05 17:20 | 49.79055 | 8.54091 | 7434 ft | 235 kts | 179° |
| 2026-05-05 17:20 | 49.77411 | 8.54061 | 7936 ft | 239 kts | 186° |
| 2026-05-05 17:20 | 49.75700 | 8.53833 | 8230 ft | 253 kts | 186° |
| 2026-05-05 17:20 | 49.73887 | 8.53592 | 8561 ft | 269 kts | 186° |
| 2026-05-05 17:21 | 49.71999 | 8.53344 | 9192 ft | 275 kts | 186° |
| 2026-05-05 17:21 | 49.70080 | 8.53094 | 9869 ft | 278 kts | 186° |
| 2026-05-05 17:21 | 49.68110 | 8.52833 | 10219 ft | 294 kts | 186° |
| 2026-05-05 17:22 | 49.63730 | 8.52239 | 10479 ft | 337 kts | 186° |
| 2026-05-05 17:22 | 49.61355 | 8.51924 | 10853 ft | 347 kts | 185° |
| 2026-05-05 17:22 | 49.58930 | 8.51610 | 11440 ft | 351 kts | 185° |
| 2026-05-05 17:22 | 49.56479 | 8.51292 | 12067 ft | 355 kts | 185° |
| 2026-05-05 17:23 | 49.54009 | 8.50967 | 12697 ft | 358 kts | 186° |
| 2026-05-05 17:23 | 49.51507 | 8.50638 | 13327 ft | 362 kts | 186° |
| 2026-05-05 17:23 | 49.48989 | 8.50307 | 13909 ft | 365 kts | 186° |
| 2026-05-05 17:23 | 49.46449 | 8.49972 | 14456 ft | 368 kts | 186° |
| 2026-05-05 17:24 | 49.43884 | 8.49634 | 15001 ft | 371 kts | 185° |
| 2026-05-05 17:24 | 49.41307 | 8.49299 | 15542 ft | 373 kts | 186° |
| 2026-05-05 17:24 | 49.38704 | 8.48962 | 16076 ft | 377 kts | 186° |
| 2026-05-05 17:24 | 49.36114 | 8.48624 | 16600 ft | 380 kts | 186° |
| 2026-05-05 17:25 | 49.33439 | 8.48271 | 17127 ft | 382 kts | 186° |
| 2026-05-05 17:25 | 49.31677 | 8.48039 | 17467 ft | 384 kts | 186° |
| 2026-05-05 17:25 | 49.28126 | 8.47579 | 18136 ft | 388 kts | 186° |
| 2026-05-05 17:25 | 49.25429 | 8.47231 | 18568 ft | 391 kts | 185° |
| 2026-05-05 17:26 | 49.22710 | 8.46881 | 19003 ft | 393 kts | 185° |
| 2026-05-05 17:26 | 49.19975 | 8.46527 | 19431 ft | 396 kts | 185° |
| 2026-05-05 17:26 | 49.17221 | 8.46165 | 19839 ft | 399 kts | 185° |
| 2026-05-05 17:26 | 49.14444 | 8.45804 | 20273 ft | 401 kts | 185° |
| 2026-05-05 17:27 | 49.11646 | 8.45444 | 20698 ft | 404 kts | 185° |
| 2026-05-05 17:27 | 49.08843 | 8.45082 | 21124 ft | 406 kts | 185° |
| 2026-05-05 17:27 | 49.06023 | 8.44621 | 21555 ft | 408 kts | 191° |
| 2026-05-05 17:27 | 49.03242 | 8.43685 | 21982 ft | 410 kts | 193° |
| 2026-05-05 17:28 | 49.00459 | 8.42707 | 22407 ft | 412 kts | 193° |
| 2026-05-05 17:28 | 48.97652 | 8.41719 | 22832 ft | 415 kts | 193° |
| 2026-05-05 17:28 | 48.94834 | 8.40730 | 23237 ft | 417 kts | 193° |
| 2026-05-05 17:28 | 48.91989 | 8.39738 | 23598 ft | 420 kts | 193° |
| 2026-05-05 17:29 | 48.89171 | 8.38535 | 23959 ft | 421 kts | 201° |
| 2026-05-05 17:29 | 48.86454 | 8.36833 | 24308 ft | 423 kts | 202° |
| 2026-05-05 17:29 | 48.83733 | 8.35114 | 24652 ft | 425 kts | 202° |
| 2026-05-05 17:29 | 48.80994 | 8.33382 | 24993 ft | 427 kts | 202° |
| 2026-05-05 17:30 | 48.78281 | 8.31674 | 25335 ft | 429 kts | 201° |
| 2026-05-05 17:30 | 48.75473 | 8.29953 | 25683 ft | 430 kts | 201° |
| 2026-05-05 17:30 | 48.72721 | 8.28302 | 26016 ft | 432 kts | 201° |
| 2026-05-05 17:30 | 48.69919 | 8.26637 | 26326 ft | 434 kts | 201° |
| 2026-05-05 17:31 | 48.67106 | 8.24966 | 26635 ft | 435 kts | 201° |
| 2026-05-05 17:31 | 48.64275 | 8.23285 | 26940 ft | 437 kts | 201° |
| 2026-05-05 17:31 | 48.61438 | 8.21599 | 27249 ft | 439 kts | 201° |
| 2026-05-05 17:31 | 48.58588 | 8.19901 | 27555 ft | 441 kts | 201° |
| 2026-05-05 17:32 | 48.55732 | 8.18194 | 27861 ft | 443 kts | 201° |
| 2026-05-05 17:32 | 48.52859 | 8.16476 | 28163 ft | 444 kts | 201° |
| 2026-05-05 17:32 | 48.49978 | 8.14757 | 28463 ft | 446 kts | 201° |
| 2026-05-05 17:32 | 48.47091 | 8.13039 | 28858 ft | 445 kts | 200° |
| 2026-05-05 17:33 | 48.44211 | 8.11334 | 29277 ft | 443 kts | 200° |
| 2026-05-05 17:33 | 48.41341 | 8.09641 | 29716 ft | 442 kts | 200° |
| 2026-05-05 17:33 | 48.38477 | 8.07952 | 30120 ft | 441 kts | 200° |
| 2026-05-05 17:33 | 48.35627 | 8.06271 | 30567 ft | 439 kts | 201° |
| 2026-05-05 17:34 | 48.32796 | 8.04602 | 30993 ft | 437 kts | 201° |
| 2026-05-05 17:34 | 48.29974 | 8.02936 | 31347 ft | 436 kts | 201° |
| 2026-05-05 17:34 | 48.27149 | 8.01270 | 31679 ft | 435 kts | 201° |
| 2026-05-05 17:34 | 48.24336 | 7.99609 | 32004 ft | 434 kts | 201° |
| 2026-05-05 17:35 | 48.21531 | 7.97948 | 32345 ft | 433 kts | 201° |
| 2026-05-05 17:35 | 48.18735 | 7.96290 | 32675 ft | 432 kts | 201° |
| 2026-05-05 17:35 | 48.15941 | 7.94635 | 33029 ft | 431 kts | 201° |
| 2026-05-05 17:35 | 48.13157 | 7.92985 | 33393 ft | 429 kts | 201° |
| 2026-05-05 17:36 | 48.10389 | 7.91353 | 33760 ft | 428 kts | 201° |
| 2026-05-05 17:36 | 48.07622 | 7.89725 | 34054 ft | 427 kts | 201° |
| 2026-05-05 17:36 | 48.04861 | 7.88098 | 34315 ft | 426 kts | 201° |
| 2026-05-05 17:36 | 48.02102 | 7.86472 | 34565 ft | 425 kts | 201° |
| 2026-05-05 17:37 | 47.99351 | 7.84853 | 34779 ft | 426 kts | 201° |
| 2026-05-05 17:37 | 47.93890 | 7.81645 | 34864 ft | 422 kts | 202° |
| 2026-05-05 17:38 | 47.88446 | 7.78470 | 34859 ft | 418 kts | 202° |
| 2026-05-05 17:38 | 47.83027 | 7.75312 | 34862 ft | 418 kts | 202° |
| 2026-05-05 17:39 | 47.77615 | 7.72155 | 34882 ft | 418 kts | 202° |
| 2026-05-05 17:39 | 47.72197 | 7.69005 | 34881 ft | 417 kts | 202° |
| 2026-05-05 17:40 | 47.66790 | 7.65872 | 34890 ft | 417 kts | 202° |
| 2026-05-05 17:40 | 47.61377 | 7.62748 | 34891 ft | 417 kts | 202° |
| 2026-05-05 17:41 | 47.55978 | 7.59637 | 34896 ft | 417 kts | 202° |
| 2026-05-05 17:41 | 47.50563 | 7.56514 | 34885 ft | 417 kts | 202° |
| 2026-05-05 17:42 | 47.45156 | 7.53404 | 34885 ft | 417 kts | 202° |
| 2026-05-05 17:42 | 47.39748 | 7.50314 | 34884 ft | 417 kts | 202° |
| 2026-05-05 17:43 | 47.34370 | 7.47236 | 34894 ft | 417 kts | 202° |
| 2026-05-05 17:43 | 47.28961 | 7.44147 | 34897 ft | 416 kts | 202° |
| 2026-05-05 17:44 | 47.23559 | 7.41079 | 34897 ft | 416 kts | 202° |
| 2026-05-05 17:44 | 47.18259 | 7.37720 | 34895 ft | 414 kts | 212° |
| 2026-05-05 17:45 | 47.13912 | 7.32264 | 34893 ft | 413 kts | 231° |
| 2026-05-05 17:45 | 47.10346 | 7.25652 | 34897 ft | 412 kts | 231° |
| 2026-05-05 17:46 | 47.06761 | 7.19084 | 34901 ft | 412 kts | 230° |
| 2026-05-05 17:46 | 47.03172 | 7.12546 | 34912 ft | 412 kts | 231° |
| 2026-05-05 17:47 | 46.99588 | 7.05995 | 34904 ft | 411 kts | 231° |
| 2026-05-05 17:47 | 46.96038 | 6.99493 | 34887 ft | 411 kts | 231° |
| 2026-05-05 17:48 | 46.92456 | 6.92971 | 34916 ft | 411 kts | 230° |
| 2026-05-05 17:48 | 46.88331 | 6.87224 | 34907 ft | 411 kts | 219° |
| 2026-05-05 17:49 | 46.83900 | 6.81938 | 34902 ft | 411 kts | 219° |
| 2026-05-05 17:49 | 46.79464 | 6.76662 | 34900 ft | 411 kts | 219° |
| 2026-05-05 17:50 | 46.75027 | 6.71405 | 34909 ft | 411 kts | 219° |
| 2026-05-05 17:50 | 46.70598 | 6.66163 | 34920 ft | 409 kts | 220° |
| 2026-05-05 17:51 | 46.66182 | 6.60935 | 34927 ft | 409 kts | 219° |
| 2026-05-05 17:51 | 46.61763 | 6.55725 | 34936 ft | 408 kts | 219° |
| 2026-05-05 17:52 | 46.57353 | 6.50532 | 34936 ft | 408 kts | 219° |
| 2026-05-05 17:52 | 46.52943 | 6.45342 | 34960 ft | 408 kts | 219° |
| 2026-05-05 17:53 | 46.48553 | 6.40195 | 34942 ft | 409 kts | 219° |
| 2026-05-05 17:53 | 46.44090 | 6.34987 | 34934 ft | 409 kts | 219° |
| 2026-05-05 17:54 | 46.39658 | 6.29820 | 34934 ft | 409 kts | 219° |
| 2026-05-05 17:54 | 46.35258 | 6.24689 | 34939 ft | 408 kts | 219° |
| 2026-05-05 17:55 | 46.30830 | 6.19541 | 34931 ft | 407 kts | 219° |
| 2026-05-05 17:55 | 46.26262 | 6.14727 | 34929 ft | 407 kts | 209° |
| 2026-05-05 17:56 | 46.20870 | 6.12220 | 34927 ft | 412 kts | 191° |
| 2026-05-05 17:56 | 46.15199 | 6.10974 | 34919 ft | 412 kts | 192° |
| 2026-05-05 17:57 | 46.09538 | 6.09705 | 34897 ft | 412 kts | 192° |
| 2026-05-05 17:57 | 46.03867 | 6.08446 | 34889 ft | 412 kts | 192° |
| 2026-05-05 17:58 | 45.98195 | 6.07198 | 34875 ft | 412 kts | 193° |
| 2026-05-05 17:58 | 45.92540 | 6.05959 | 34893 ft | 411 kts | 192° |
| 2026-05-05 17:59 | 45.86888 | 6.04703 | 34900 ft | 411 kts | 193° |
| 2026-05-05 17:59 | 45.81246 | 6.03459 | 34906 ft | 410 kts | 193° |
| 2026-05-05 18:00 | 45.75641 | 6.02219 | 34896 ft | 409 kts | 193° |
| 2026-05-05 18:00 | 45.70019 | 6.00966 | 34892 ft | 409 kts | 193° |
| 2026-05-05 18:01 | 45.64387 | 5.99729 | 34894 ft | 409 kts | 193° |
| 2026-05-05 18:01 | 45.58764 | 5.98500 | 34883 ft | 409 kts | 193° |
| 2026-05-05 18:02 | 45.53137 | 5.97261 | 34886 ft | 409 kts | 193° |
| 2026-05-05 18:02 | 45.47496 | 5.96022 | 34891 ft | 409 kts | 194° |
| 2026-05-05 18:03 | 45.41916 | 5.94454 | 34886 ft | 408 kts | 197° |
| 2026-05-05 18:03 | 45.37331 | 5.92930 | 34909 ft | 407 kts | 198° |
| 2026-05-05 18:04 | 45.31824 | 5.91108 | 34906 ft | 406 kts | 197° |
| 2026-05-05 18:04 | 45.26300 | 5.89371 | 34927 ft | 407 kts | 197° |
| 2026-05-05 18:05 | 45.20767 | 5.87662 | 34929 ft | 406 kts | 197° |
| 2026-05-05 18:05 | 45.15254 | 5.85957 | 34935 ft | 404 kts | 197° |
| 2026-05-05 18:06 | 45.09775 | 5.84264 | 34937 ft | 403 kts | 197° |
| 2026-05-05 18:06 | 45.04313 | 5.82589 | 34920 ft | 401 kts | 197° |
| 2026-05-05 18:07 | 44.98876 | 5.80925 | 34940 ft | 398 kts | 197° |
| 2026-05-05 18:07 | 44.93510 | 5.79273 | 34942 ft | 396 kts | 197° |
| 2026-05-05 18:08 | 44.88101 | 5.77607 | 34946 ft | 394 kts | 197° |
| 2026-05-05 18:08 | 44.82783 | 5.75966 | 34929 ft | 393 kts | 197° |
| 2026-05-05 18:09 | 44.77446 | 5.74329 | 34940 ft | 391 kts | 197° |
| 2026-05-05 18:09 | 44.72134 | 5.72708 | 34940 ft | 390 kts | 197° |
| 2026-05-05 18:10 | 44.66838 | 5.71094 | 34943 ft | 389 kts | 197° |
| 2026-05-05 18:10 | 44.61535 | 5.69486 | 34926 ft | 390 kts | 197° |
| 2026-05-05 18:11 | 44.56217 | 5.67871 | 34917 ft | 391 kts | 197° |
| 2026-05-05 18:11 | 44.50899 | 5.66259 | 34911 ft | 391 kts | 197° |
| 2026-05-05 18:12 | 44.45568 | 5.64645 | 34901 ft | 391 kts | 197° |
| 2026-05-05 18:12 | 44.40235 | 5.63039 | 34914 ft | 392 kts | 197° |
| 2026-05-05 18:13 | 44.35089 | 5.60777 | 34921 ft | 386 kts | 205° |
| 2026-05-05 18:13 | 44.30089 | 5.58028 | 34927 ft | 386 kts | 205° |
| 2026-05-05 18:14 | 44.25091 | 5.55290 | 34917 ft | 386 kts | 205° |
| 2026-05-05 18:14 | 44.20098 | 5.52557 | 34925 ft | 385 kts | 205° |
| 2026-05-05 18:15 | 44.15107 | 5.49835 | 34927 ft | 385 kts | 205° |
| 2026-05-05 18:15 | 44.10142 | 5.47136 | 34932 ft | 386 kts | 205° |
| 2026-05-05 18:16 | 44.05116 | 5.44405 | 34922 ft | 385 kts | 205° |
| 2026-05-05 18:16 | 44.00165 | 5.41723 | 34932 ft | 384 kts | 205° |
| 2026-05-05 18:17 | 43.95188 | 5.39034 | 34936 ft | 384 kts | 205° |
| 2026-05-05 18:17 | 43.90207 | 5.36333 | 34918 ft | 383 kts | 205° |
| 2026-05-05 18:18 | 43.85234 | 5.33639 | 34927 ft | 383 kts | 205° |
| 2026-05-05 18:18 | 43.80270 | 5.30959 | 34949 ft | 383 kts | 205° |
| 2026-05-05 18:19 | 43.75305 | 5.28283 | 34932 ft | 383 kts | 205° |
| 2026-05-05 18:19 | 43.70326 | 5.25613 | 34905 ft | 383 kts | 205° |
| 2026-05-05 18:20 | 43.65356 | 5.22953 | 34922 ft | 383 kts | 205° |
| 2026-05-05 18:20 | 43.60390 | 5.20289 | 34927 ft | 383 kts | 205° |
| 2026-05-05 18:21 | 43.55455 | 5.17653 | 34929 ft | 383 kts | 205° |
| 2026-05-05 18:21 | 43.50490 | 5.15004 | 34919 ft | 382 kts | 205° |
| 2026-05-05 18:22 | 43.45523 | 5.12363 | 34927 ft | 382 kts | 205° |
| 2026-05-05 18:22 | 43.40571 | 5.09731 | 34929 ft | 381 kts | 205° |
| 2026-05-05 18:23 | 43.36006 | 5.06207 | 34926 ft | 376 kts | 217° |
| 2026-05-05 18:23 | 43.31703 | 5.02137 | 34896 ft | 376 kts | 216° |
| 2026-05-05 18:24 | 43.27396 | 4.98094 | 34913 ft | 375 kts | 217° |
| 2026-05-05 18:24 | 43.23095 | 4.94057 | 34953 ft | 374 kts | 217° |
| 2026-05-05 18:25 | 43.18791 | 4.90023 | 34939 ft | 375 kts | 217° |
| 2026-05-05 18:25 | 43.14485 | 4.85993 | 34931 ft | 375 kts | 216° |
| 2026-05-05 18:26 | 43.10181 | 4.81968 | 34914 ft | 375 kts | 217° |
| 2026-05-05 18:26 | 43.05871 | 4.77949 | 34922 ft | 374 kts | 214° |
| 2026-05-05 18:27 | 43.01085 | 4.75049 | 34923 ft | 377 kts | 206° |
| 2026-05-05 18:27 | 42.96149 | 4.72325 | 34911 ft | 388 kts | 206° |
| 2026-05-05 18:28 | 42.88551 | 4.68166 | 34906 ft | 394 kts | 206° |
| 2026-05-05 18:28 | 42.83466 | 4.65381 | 34906 ft | 394 kts | 206° |
| 2026-05-05 18:29 | 42.78387 | 4.62597 | 34907 ft | 394 kts | 206° |
| 2026-05-05 18:29 | 42.73326 | 4.59835 | 34908 ft | 394 kts | 206° |
| 2026-05-05 18:30 | 42.68238 | 4.57057 | 34944 ft | 394 kts | 206° |
| 2026-05-05 18:30 | 42.63148 | 4.54281 | 34923 ft | 395 kts | 206° |
| 2026-05-05 18:31 | 42.58042 | 4.51505 | 34910 ft | 396 kts | 206° |
| 2026-05-05 18:31 | 42.52927 | 4.48730 | 34907 ft | 396 kts | 206° |
| 2026-05-05 18:32 | 42.47801 | 4.45960 | 34887 ft | 396 kts | 206° |
| 2026-05-05 18:32 | 42.42676 | 4.43193 | 34895 ft | 397 kts | 206° |
| 2026-05-05 18:33 | 42.37546 | 4.40417 | 34903 ft | 397 kts | 206° |
| 2026-05-05 18:33 | 42.32421 | 4.37652 | 34909 ft | 397 kts | 206° |
| 2026-05-05 18:34 | 42.27284 | 4.34894 | 34892 ft | 397 kts | 206° |
| 2026-05-05 18:34 | 42.22177 | 4.32149 | 34902 ft | 397 kts | 206° |
| 2026-05-05 18:35 | 42.17017 | 4.29376 | 34899 ft | 397 kts | 206° |
| 2026-05-05 18:35 | 42.11911 | 4.26644 | 34906 ft | 397 kts | 206° |
| 2026-05-05 18:36 | 42.06784 | 4.23898 | 34887 ft | 396 kts | 206° |
| 2026-05-05 18:36 | 42.01658 | 4.21145 | 34894 ft | 396 kts | 206° |
| 2026-05-05 18:37 | 41.96538 | 4.18394 | 34918 ft | 397 kts | 206° |
| 2026-05-05 18:37 | 41.91402 | 4.15638 | 34901 ft | 398 kts | 206° |
| 2026-05-05 18:38 | 41.86250 | 4.12894 | 34862 ft | 399 kts | 206° |
| 2026-05-05 18:38 | 41.81095 | 4.10146 | 34882 ft | 399 kts | 207° |
| 2026-05-05 18:39 | 41.75923 | 4.07397 | 34881 ft | 399 kts | 206° |
| 2026-05-05 18:39 | 41.70756 | 4.04657 | 34883 ft | 399 kts | 206° |
| 2026-05-05 18:40 | 41.65596 | 4.01921 | 34876 ft | 399 kts | 207° |
| 2026-05-05 18:40 | 41.60424 | 3.99184 | 34881 ft | 399 kts | 206° |
| 2026-05-05 18:41 | 41.55288 | 3.96477 | 34887 ft | 399 kts | 206° |
| 2026-05-05 18:41 | 41.50114 | 3.93752 | 34889 ft | 399 kts | 206° |
| 2026-05-05 18:42 | 41.44949 | 3.91035 | 34870 ft | 399 kts | 206° |
| 2026-05-05 18:42 | 41.39791 | 3.88322 | 34881 ft | 398 kts | 206° |
| 2026-05-05 18:43 | 41.34635 | 3.85617 | 34883 ft | 398 kts | 206° |
| 2026-05-05 18:43 | 41.29484 | 3.82925 | 34884 ft | 398 kts | 206° |
| 2026-05-05 18:44 | 41.24336 | 3.80236 | 34897 ft | 397 kts | 206° |
| 2026-05-05 18:44 | 41.19189 | 3.77545 | 34886 ft | 398 kts | 207° |
| 2026-05-05 18:45 | 41.14030 | 3.74855 | 34880 ft | 399 kts | 206° |
| 2026-05-05 18:45 | 41.08850 | 3.72185 | 34879 ft | 399 kts | 206° |
| 2026-05-05 18:46 | 41.03696 | 3.69545 | 34853 ft | 399 kts | 206° |
| 2026-05-05 18:46 | 40.98513 | 3.66896 | 34868 ft | 399 kts | 206° |
| 2026-05-05 18:47 | 40.93329 | 3.64245 | 34876 ft | 400 kts | 206° |
| 2026-05-05 18:47 | 40.88140 | 3.61606 | 34883 ft | 400 kts | 206° |
| 2026-05-05 18:48 | 40.86420 | 3.60732 | 34673 ft | 401 kts | 206° |
| 2026-05-05 18:48 | 40.83826 | 3.59414 | 34325 ft | 397 kts | 206° |
| 2026-05-05 18:48 | 40.81245 | 3.58105 | 34084 ft | 397 kts | 206° |
| 2026-05-05 18:48 | 40.78660 | 3.56792 | 33679 ft | 398 kts | 206° |
| 2026-05-05 18:49 | 40.76070 | 3.55474 | 32842 ft | 399 kts | 206° |
| 2026-05-05 18:49 | 40.73481 | 3.54154 | 32057 ft | 399 kts | 206° |
| 2026-05-05 18:49 | 40.70881 | 3.52829 | 31276 ft | 401 kts | 206° |
| 2026-05-05 18:49 | 40.68263 | 3.51498 | 30452 ft | 404 kts | 206° |
| 2026-05-05 18:50 | 40.65626 | 3.50162 | 29508 ft | 407 kts | 206° |
| 2026-05-05 18:50 | 40.62967 | 3.48821 | 28588 ft | 411 kts | 206° |
| 2026-05-05 18:50 | 40.60293 | 3.47475 | 27951 ft | 413 kts | 206° |
| 2026-05-05 18:50 | 40.57625 | 3.46133 | 27397 ft | 417 kts | 206° |
| 2026-05-05 18:51 | 40.54901 | 3.44758 | 26798 ft | 420 kts | 206° |
| 2026-05-05 18:51 | 40.52161 | 3.43377 | 26191 ft | 423 kts | 206° |
| 2026-05-05 18:51 | 40.49432 | 3.42010 | 25701 ft | 414 kts | 206° |
| 2026-05-05 18:51 | 40.46742 | 3.40672 | 25243 ft | 404 kts | 206° |
| 2026-05-05 18:52 | 40.44029 | 3.39696 | 24625 ft | 407 kts | 196° |
| 2026-05-05 18:52 | 40.41223 | 3.39411 | 23940 ft | 414 kts | 186° |
| 2026-05-05 18:52 | 40.38300 | 3.39564 | 23142 ft | 415 kts | 185° |
| 2026-05-05 18:52 | 40.35457 | 3.39730 | 22369 ft | 413 kts | 185° |
| 2026-05-05 18:53 | 40.32597 | 3.39899 | 21664 ft | 409 kts | 184° |
| 2026-05-05 18:53 | 40.29764 | 3.40067 | 20989 ft | 405 kts | 184° |
| 2026-05-05 18:53 | 40.26957 | 3.40231 | 20333 ft | 402 kts | 184° |
| 2026-05-05 18:53 | 40.24177 | 3.40392 | 19685 ft | 398 kts | 184° |
| 2026-05-05 18:54 | 40.21440 | 3.40551 | 19347 ft | 387 kts | 184° |
| 2026-05-05 18:54 | 40.18811 | 3.40709 | 19198 ft | 370 kts | 184° |
| 2026-05-05 18:54 | 40.16286 | 3.40861 | 19061 ft | 355 kts | 184° |
| 2026-05-05 18:54 | 40.13897 | 3.41007 | 18943 ft | 331 kts | 185° |
| 2026-05-05 18:55 | 40.11664 | 3.41144 | 18758 ft | 314 kts | 185° |
| 2026-05-05 18:55 | 40.09517 | 3.41265 | 18405 ft | 306 kts | 185° |
| 2026-05-05 18:55 | 40.07407 | 3.41375 | 17907 ft | 302 kts | 185° |
| 2026-05-05 18:55 | 40.05316 | 3.41482 | 17366 ft | 299 kts | 185° |
| 2026-05-05 18:56 | 40.03242 | 3.41588 | 16839 ft | 297 kts | 185° |
| 2026-05-05 18:56 | 40.01189 | 3.41694 | 16320 ft | 294 kts | 185° |
| 2026-05-05 18:56 | 39.99148 | 3.41802 | 15815 ft | 292 kts | 184° |
| 2026-05-05 18:56 | 39.97122 | 3.41914 | 15301 ft | 290 kts | 184° |
| 2026-05-05 18:57 | 39.95117 | 3.42029 | 14809 ft | 288 kts | 184° |
| 2026-05-05 18:57 | 39.93141 | 3.42143 | 14334 ft | 286 kts | 184° |
| 2026-05-05 18:57 | 39.91160 | 3.42254 | 13870 ft | 284 kts | 184° |
| 2026-05-05 18:57 | 39.89190 | 3.42365 | 13375 ft | 282 kts | 183° |
| 2026-05-05 18:58 | 39.87235 | 3.42476 | 12849 ft | 281 kts | 183° |
| 2026-05-05 18:58 | 39.85282 | 3.42586 | 12315 ft | 280 kts | 183° |
| 2026-05-05 18:58 | 39.83339 | 3.42692 | 11790 ft | 280 kts | 183° |
| 2026-05-05 18:58 | 39.81390 | 3.42799 | 11352 ft | 280 kts | 182° |
| 2026-05-05 18:59 | 39.79438 | 3.42910 | 10962 ft | 280 kts | 182° |
| 2026-05-05 18:59 | 39.77493 | 3.43020 | 10570 ft | 280 kts | 182° |
| 2026-05-05 18:59 | 39.75551 | 3.43131 | 10180 ft | 279 kts | 182° |
| 2026-05-05 18:59 | 39.73624 | 3.43129 | 9788 ft | 274 kts | 194° |
| 2026-05-05 19:00 | 39.71885 | 3.42274 | 9396 ft | 265 kts | 217° |
| 2026-05-05 19:00 | 39.70615 | 3.40598 | 8975 ft | 260 kts | 239° |
| 2026-05-05 19:00 | 39.69999 | 3.38406 | 8553 ft | 260 kts | 262° |
| 2026-05-05 19:00 | 39.70007 | 3.36060 | 8213 ft | 261 kts | 271° |
| 2026-05-05 19:01 | 39.70090 | 3.33702 | 7909 ft | 261 kts | 270° |
| 2026-05-05 19:01 | 39.70168 | 3.31346 | 7609 ft | 261 kts | 271° |
| 2026-05-05 19:01 | 39.70243 | 3.28998 | 7313 ft | 260 kts | 271° |
| 2026-05-05 19:01 | 39.70315 | 3.26664 | 7017 ft | 258 kts | 270° |
| 2026-05-05 19:02 | 39.70385 | 3.24339 | 6713 ft | 257 kts | 271° |
| 2026-05-05 19:02 | 39.70458 | 3.22019 | 6429 ft | 256 kts | 271° |
| 2026-05-05 19:02 | 39.70531 | 3.19732 | 6138 ft | 251 kts | 271° |
| 2026-05-05 19:02 | 39.70601 | 3.17486 | 5832 ft | 247 kts | 271° |
| 2026-05-05 19:03 | 39.70668 | 3.15278 | 5538 ft | 243 kts | 271° |
| 2026-05-05 19:03 | 39.70732 | 3.13109 | 5269 ft | 237 kts | 271° |
| 2026-05-05 19:03 | 39.70792 | 3.10994 | 5057 ft | 230 kts | 270° |
| 2026-05-05 19:03 | 39.70623 | 3.08987 | 4989 ft | 217 kts | 256° |
| 2026-05-05 19:04 | 39.70083 | 3.07242 | 4992 ft | 202 kts | 245° |
| 2026-05-05 19:04 | 39.69423 | 3.05730 | 4995 ft | 184 kts | 242° |
| 2026-05-05 19:04 | 39.68774 | 3.04327 | 4873 ft | 180 kts | 242° |
| 2026-05-05 19:04 | 39.68125 | 3.02936 | 4671 ft | 180 kts | 242° |
| 2026-05-05 19:05 | 39.67476 | 3.01549 | 4438 ft | 179 kts | 242° |
| 2026-05-05 19:05 | 39.66831 | 3.00173 | 4203 ft | 179 kts | 242° |
| 2026-05-05 19:05 | 39.66187 | 2.98799 | 3966 ft | 178 kts | 242° |
| 2026-05-05 19:05 | 39.65546 | 2.97433 | 3731 ft | 177 kts | 242° |
| 2026-05-05 19:06 | 39.64918 | 2.96094 | 3505 ft | 176 kts | 242° |
| 2026-05-05 19:06 | 39.64283 | 2.94740 | 3276 ft | 175 kts | 241° |
| 2026-05-05 19:06 | 39.63653 | 2.93399 | 3040 ft | 171 kts | 241° |
| 2026-05-05 19:06 | 39.63046 | 2.92108 | 2819 ft | 165 kts | 242° |
| 2026-05-05 19:07 | 39.62460 | 2.90860 | 2604 ft | 160 kts | 241° |
| 2026-05-05 19:07 | 39.61885 | 2.89637 | 2406 ft | 158 kts | 241° |
| 2026-05-05 19:07 | 39.61319 | 2.88433 | 2222 ft | 156 kts | 240° |
| 2026-05-05 19:07 | 39.60756 | 2.87236 | 2009 ft | 156 kts | 240° |
| 2026-05-05 19:08 | 39.60193 | 2.86040 | 1791 ft | 154 kts | 238° |
| 2026-05-05 19:08 | 39.59641 | 2.84867 | 1578 ft | 147 kts | 239° |
| 2026-05-05 19:08 | 39.59125 | 2.83771 | 1370 ft | 140 kts | 239° |
| 2026-05-05 19:08 | 39.58597 | 2.82669 | 1185 ft | 143 kts | 238° |
| 2026-05-05 19:09 | 39.58078 | 2.81582 | 933 ft | 142 kts | 239° |
| 2026-05-05 19:09 | 39.57576 | 2.80487 | 752 ft | 140 kts | 239° |
| 2026-05-05 19:09 | 39.57073 | 2.79420 | 593 ft | 137 kts | 238° |
| 2026-05-05 19:09 | 39.56569 | 2.78350 | 408 ft | 141 kts | 238° |
| 2026-05-05 19:10 | 39.56070 | 2.77294 | 266 ft | 136 kts | 238° |
| 2026-05-05 19:10 | 39.55584 | 2.76260 | 103 ft | 135 kts | 238° |
| 2026-05-05 19:10 | 39.55117 | 2.75266 | 38 ft | 106 kts | 239° |
| 2026-05-05 19:10 | 39.54885 | 2.74775 | 38 ft | 33 kts | 240° |
| 2026-05-05 19:11 | 39.54819 | 2.74531 | 38 ft | 27 kts | 256° |
| 2026-05-05 19:11 | 39.54804 | 2.74319 | 38 ft | 15 kts | 269° |
| 2026-05-05 19:11 | 39.54803 | 2.74228 | 38 ft | 8 kts | 269° |
| 2026-05-05 19:11 | 39.54825 | 2.74137 | 38 ft | 15 kts | 308° |
| 2026-05-05 19:12 | 39.54908 | 2.74061 | 38 ft | 10 kts | 328° |
| 2026-05-05 19:12 | 39.54922 | 2.74050 | 38 ft | 1 kts | 329° |
| 2026-05-05 19:12 | 39.54923 | 2.74049 | 36 ft | 0 kts | 329° |
| 2026-05-05 19:12 | 39.54930 | 2.74044 | 37 ft | 3 kts | 329° |
| 2026-05-05 19:13 | 39.54963 | 2.74018 | 38 ft | 8 kts | 329° |
| 2026-05-05 19:13 | 39.55026 | 2.73968 | 38 ft | 12 kts | 329° |
| 2026-05-05 19:13 | 39.55096 | 2.73914 | 38 ft | 11 kts | 329° |
| 2026-05-05 19:13 | 39.55161 | 2.73863 | 38 ft | 11 kts | 329° |
| 2026-05-05 19:14 | 39.55169 | 2.73792 | 38 ft | 9 kts | 246° |
| 2026-05-05 19:14 | 39.55175 | 2.73739 | 38 ft | 4 kts | 295° |
| 2026-05-05 19:14 | 39.55178 | 2.73696 | 38 ft | 8 kts | 257° |
| 2026-05-05 19:14 | 39.55140 | 2.73631 | 38 ft | 9 kts | 205° |
| 2026-05-05 19:15 | 39.55093 | 2.73620 | 38 ft | 3 kts | 189° |
| 2026-05-05 19:15 | 39.55091 | 2.73619 | 38 ft | 0 kts | 189° |